createdAt,value
2017-03-24T00:00:31.987Z,95.4
2017-03-24T00:01:34.679Z,95.4
2017-03-24T00:02:37.117Z,95.4
2017-03-24T00:03:39.429Z,95.4
2017-03-24T00:04:42.370Z,95.4
2017-03-24T00:05:44.806Z,95.4
2017-03-24T00:06:47.542Z,95.4
2017-03-24T00:08:52.889Z,95.4
2017-03-24T00:09:55.330Z,95.4
2017-03-24T00:10:57.636Z,95.4
2017-03-24T00:12:00.831Z,95.4
2017-03-24T00:13:03.271Z,95.4
2017-03-24T00:14:05.711Z,95.4
2017-03-24T00:15:08.187Z,95.4
2017-03-24T00:16:10.621Z,95.4
2017-03-24T00:17:13.681Z,95.4
2017-03-24T00:18:16.128Z,95.4
2017-03-24T00:19:18.430Z,95.4
2017-03-24T00:20:21.369Z,95.4
2017-03-24T00:21:23.805Z,95.4
2017-03-24T00:22:26.549Z,95.4
2017-03-24T00:23:28.991Z,95.4
2017-03-24T00:24:31.439Z,95.4
2017-03-24T00:25:34.377Z,95.4
2017-03-24T00:26:36.812Z,95.4
2017-03-24T00:27:39.552Z,95.4
2017-03-24T00:28:41.994Z,95.4
2017-03-24T00:29:44.439Z,95.4
2017-03-24T00:30:47.379Z,95.4
2017-03-24T00:31:49.816Z,95.4
2017-03-24T00:32:52.557Z,95.4
2017-03-24T00:33:55.163Z,95.4
2017-03-24T00:34:57.338Z,95.4
2017-03-24T00:36:00.277Z,95.4
2017-03-24T00:37:02.713Z,95.5
2017-03-24T00:38:05.462Z,95.4
2017-03-24T00:39:07.769Z,95.4
2017-03-24T00:40:10.709Z,95.4
2017-03-24T00:41:13.146Z,95.4
2017-03-24T00:42:15.607Z,95.5
2017-03-24T00:43:18.854Z,95.5
2017-03-24T00:44:20.798Z,95.4
2017-03-24T00:45:23.605Z,95.4
2017-03-24T00:46:26.121Z,95.4
2017-03-24T00:47:28.571Z,95.4
2017-03-24T00:48:31.767Z,95.4
2017-03-24T00:49:33.703Z,95.5
2017-03-24T00:50:36.642Z,95.5
2017-03-24T00:51:38.939Z,95.5
2017-03-24T00:52:41.877Z,95.5
2017-03-24T00:53:44.625Z,95.5
2017-03-24T00:54:47.063Z,95.5
2017-03-24T00:55:49.507Z,95.5
2017-03-24T00:56:51.941Z,95.5
2017-03-24T00:57:54.885Z,95.5
2017-03-24T00:58:57.583Z,95.5
2017-03-24T01:00:00.023Z,95.5
2017-03-24T01:01:02.459Z,95.5
2017-03-24T01:02:04.892Z,95.5
2017-03-24T01:03:07.835Z,95.5
2017-03-24T01:04:10.449Z,95.5
2017-03-24T01:05:12.886Z,95.5
2017-03-24T01:06:15.322Z,95.5
2017-03-24T01:07:18.130Z,95.5
2017-03-24T01:08:20.572Z,95.5
2017-03-24T01:09:23.312Z,95.5
2017-03-24T01:10:25.755Z,95.5
2017-03-24T01:11:28.191Z,95.5
2017-03-24T01:12:30.995Z,95.5
2017-03-24T01:13:33.448Z,95.5
2017-03-24T01:14:36.193Z,95.5
2017-03-24T01:15:38.632Z,95.5
2017-03-24T01:16:41.070Z,95.5
2017-03-24T01:17:44.011Z,95.5
2017-03-24T01:18:46.407Z,95.5
2017-03-24T01:19:49.507Z,95.5
2017-03-24T01:20:51.357Z,95.5
2017-03-24T01:21:54.213Z,95.5
2017-03-24T01:22:56.575Z,95.5
2017-03-24T01:23:59.428Z,95.5
2017-03-24T01:25:02.083Z,95.5
2017-03-24T01:26:04.794Z,95.5
2017-03-24T01:27:07.143Z,95.5
2017-03-24T01:28:09.450Z,95.5
2017-03-24T01:29:12.299Z,95.5
2017-03-24T01:30:15.403Z,95.5
2017-03-24T01:31:17.751Z,95.5
2017-03-24T01:32:19.965Z,95.5
2017-03-24T01:33:22.819Z,95.5
2017-03-24T01:34:25.170Z,95.5
2017-03-24T01:35:28.137Z,95.5
2017-03-24T01:36:30.352Z,95.5
2017-03-24T01:37:33.075Z,95.5
2017-03-24T01:38:35.426Z,95.5
2017-03-24T01:39:38.285Z,95.5
2017-03-24T01:40:40.940Z,95.5
2017-03-24T01:41:43.284Z,95.5
2017-03-24T01:43:48.542Z,95.5
2017-03-24T01:44:50.951Z,95.5
2017-03-24T01:45:53.837Z,95.5
2017-03-24T01:46:56.181Z,95.5
2017-03-24T01:47:59.031Z,95.5
2017-03-24T01:49:01.383Z,95.5
2017-03-24T01:50:04.239Z,95.5
2017-03-24T01:51:06.845Z,95.5
2017-03-24T01:52:09.053Z,95.5
2017-03-24T01:53:11.905Z,95.5
2017-03-24T01:54:14.274Z,95.5
2017-03-24T01:55:17.125Z,95.5
2017-03-24T01:56:19.990Z,95.5
2017-03-24T01:57:22.334Z,95.5
2017-03-24T01:58:24.690Z,95.5
2017-03-24T01:59:27.541Z,95.5
2017-03-24T02:00:29.890Z,95.5
2017-03-24T02:01:32.993Z,95.5
2017-03-24T02:02:35.343Z,95.5
2017-03-24T02:03:37.695Z,95.5
2017-03-24T02:04:40.548Z,95.5
2017-03-24T02:05:42.766Z,95.5
2017-03-24T02:06:45.865Z,95.5
2017-03-24T02:07:48.211Z,95.5
2017-03-24T02:08:50.565Z,95.5
2017-03-24T02:09:53.453Z,95.5
2017-03-24T02:10:55.802Z,95.5
2017-03-24T02:11:58.901Z,95.5
2017-03-24T02:13:01.253Z,95.5
2017-03-24T02:14:03.605Z,95.5
2017-03-24T02:15:06.460Z,95.5
2017-03-24T02:16:08.808Z,95.5
2017-03-24T02:17:11.908Z,95.5
2017-03-24T02:18:14.252Z,95.5
2017-03-24T02:19:16.601Z,95.5
2017-03-24T02:20:19.454Z,95.5
2017-03-24T02:21:21.806Z,95.5
2017-03-24T02:22:24.458Z,95.5
2017-03-24T02:23:26.815Z,95.5
2017-03-24T02:24:29.669Z,95.5
2017-03-24T02:25:32.575Z,95.5
2017-03-24T02:26:35.484Z,95.5
2017-03-24T02:27:37.452Z,95.5
2017-03-24T02:28:39.802Z,95.5
2017-03-24T02:29:42.660Z,95.5
2017-03-24T02:30:45.004Z,95.5
2017-03-24T02:31:47.854Z,95.5
2017-03-24T02:32:50.452Z,95.5
2017-03-24T02:33:52.806Z,95.5
2017-03-24T02:34:55.658Z,95.5
2017-03-24T02:35:58.058Z,95.5
2017-03-24T02:37:00.269Z,95.5
2017-03-24T02:38:03.317Z,95.5
2017-03-24T02:39:05.669Z,95.5
2017-03-24T02:40:08.390Z,95.5
2017-03-24T02:41:11.105Z,95.5
2017-03-24T02:42:13.319Z,95.5
2017-03-24T02:43:16.210Z,95.5
2017-03-24T02:44:18.559Z,95.5
2017-03-24T02:45:21.411Z,95.5
2017-03-24T02:46:23.754Z,95.5
2017-03-24T02:47:26.608Z,95.5
2017-03-24T02:48:29.260Z,95.5
2017-03-24T02:49:31.605Z,95.5
2017-03-24T02:50:34.455Z,95.5
2017-03-24T02:51:36.802Z,95.5
2017-03-24T02:52:39.653Z,95.5
2017-03-24T02:53:42.257Z,95.5
2017-03-24T02:54:44.609Z,95.5
2017-03-24T02:55:47.458Z,95.5
2017-03-24T02:56:49.848Z,95.5
2017-03-24T02:57:52.201Z,95.5
2017-03-24T02:59:57.719Z,95.5
2017-03-24T03:01:00.066Z,95.5
2017-03-24T03:02:02.918Z,95.5
2017-03-24T03:03:05.632Z,95.5
2017-03-24T03:04:07.985Z,95.5
2017-03-24T03:05:10.590Z,95.5
2017-03-24T03:06:12.942Z,95.6
2017-03-24T03:07:15.795Z,95.6
2017-03-24T03:08:18.011Z,95.6
2017-03-24T03:09:20.734Z,95.6
2017-03-24T03:10:23.889Z,95.6
2017-03-24T03:11:26.237Z,95.6
2017-03-24T03:12:28.585Z,95.6
2017-03-24T03:13:31.302Z,95.6
2017-03-24T03:14:33.524Z,95.6
2017-03-24T03:15:36.490Z,95.6
2017-03-24T03:16:38.835Z,95.6
2017-03-24T03:17:41.688Z,95.6
2017-03-24T03:18:44.037Z,95.6
2017-03-24T03:19:46.895Z,95.6
2017-03-24T03:20:49.491Z,95.6
2017-03-24T03:21:51.841Z,95.6
2017-03-24T03:22:54.692Z,95.6
2017-03-24T03:23:56.918Z,95.6
2017-03-24T03:24:59.774Z,95.7
2017-03-24T03:26:02.379Z,95.7
2017-03-24T03:27:04.737Z,95.7
2017-03-24T03:28:07.458Z,95.7
2017-03-24T03:29:09.809Z,95.7
2017-03-24T03:30:12.658Z,95.7
2017-03-24T03:31:15.252Z,95.7
2017-03-24T03:32:17.594Z,95.7
2017-03-24T03:33:20.443Z,95.7
2017-03-24T03:34:22.791Z,95.7
2017-03-24T03:35:25.141Z,95.7
2017-03-24T03:36:28.240Z,95.7
2017-03-24T03:37:30.447Z,95.7
2017-03-24T03:38:33.290Z,95.7
2017-03-24T03:39:35.493Z,95.7
2017-03-24T03:40:38.200Z,95.7
2017-03-24T03:41:41.299Z,95.7
2017-03-24T03:42:43.144Z,95.7
2017-03-24T03:43:45.989Z,95.8
2017-03-24T03:44:48.330Z,95.8
2017-03-24T03:45:51.037Z,95.8
2017-03-24T03:47:56.596Z,95.8
2017-03-24T03:48:58.944Z,95.8
2017-03-24T03:50:01.330Z,95.8
2017-03-24T03:51:04.177Z,95.8
2017-03-24T03:52:06.523Z,95.8
2017-03-24T03:53:09.166Z,95.8
2017-03-24T03:54:11.507Z,95.8
2017-03-24T03:55:14.356Z,95.8
2017-03-24T03:56:16.693Z,95.8
2017-03-24T03:57:19.535Z,95.8
2017-03-24T03:58:21.996Z,95.8
2017-03-24T03:59:24.707Z,95.8
2017-03-24T04:00:27.051Z,95.8
2017-03-24T04:01:29.390Z,95.8
2017-03-24T04:02:32.230Z,95.8
2017-03-24T04:03:34.826Z,95.8
2017-03-24T04:04:37.174Z,95.8
2017-03-24T04:05:39.886Z,95.8
2017-03-24T04:06:42.089Z,95.8
2017-03-24T04:07:44.938Z,95.8
2017-03-24T04:08:48.094Z,95.8
2017-03-24T04:09:50.303Z,95.8
2017-03-24T04:10:52.645Z,95.8
2017-03-24T04:11:55.489Z,95.8
2017-03-24T04:12:57.837Z,95.9
2017-03-24T04:14:00.431Z,95.9
2017-03-24T04:15:02.775Z,95.9
2017-03-24T04:16:05.685Z,95.9
2017-03-24T04:17:07.959Z,95.9
2017-03-24T04:18:10.805Z,95.9
2017-03-24T04:19:13.518Z,95.9
2017-03-24T04:20:15.857Z,95.9
2017-03-24T04:21:18.199Z,95.9
2017-03-24T04:22:21.043Z,95.9
2017-03-24T04:23:23.390Z,95.9
2017-03-24T04:24:26.482Z,95.9
2017-03-24T04:25:28.385Z,95.9
2017-03-24T04:26:31.227Z,95.9
2017-03-24T04:27:33.565Z,95.9
2017-03-24T04:28:36.412Z,95.9
2017-03-24T04:29:39.004Z,95.9
2017-03-24T04:30:41.343Z,95.9
2017-03-24T04:31:44.184Z,95.9
2017-03-24T04:32:46.535Z,95.9
2017-03-24T04:33:48.881Z,95.9
2017-03-24T04:34:51.980Z,95.9
2017-03-24T04:35:54.329Z,95.9
2017-03-24T04:36:56.670Z,95.9
2017-03-24T04:37:59.513Z,95.9
2017-03-24T04:39:01.859Z,95.9
2017-03-24T04:40:04.450Z,95.9
2017-03-24T04:41:06.787Z,95.9
2017-03-24T04:42:09.501Z,95.9
2017-03-24T04:43:11.846Z,95.9
2017-03-24T04:44:14.692Z,95.9
2017-03-24T04:45:17.149Z,95.9
2017-03-24T04:46:19.860Z,95.9
2017-03-24T04:47:22.201Z,95.9
2017-03-24T04:48:25.050Z,95.9
2017-03-24T04:49:27.437Z,95.9
2017-03-24T04:51:32.941Z,95.9
2017-03-24T04:52:35.287Z,95.9
2017-03-24T04:53:37.493Z,95.9
2017-03-24T04:54:40.345Z,95.9
2017-03-24T04:56:45.205Z,95.9
2017-03-24T04:57:48.052Z,95.9
2017-03-24T04:58:50.404Z,95.9
2017-03-24T04:59:52.747Z,95.9
2017-03-24T05:00:55.595Z,96
2017-03-24T05:01:58.236Z,96
2017-03-24T05:03:00.649Z,96
2017-03-24T05:04:02.999Z,95.9
2017-03-24T05:05:05.848Z,96
2017-03-24T05:06:08.107Z,95.9
2017-03-24T05:07:11.064Z,96
2017-03-24T05:08:13.267Z,96
2017-03-24T05:09:16.111Z,96
2017-03-24T05:10:18.317Z,96
2017-03-24T05:11:20.896Z,96
2017-03-24T05:12:23.852Z,96
2017-03-24T05:13:26.057Z,96
2017-03-24T05:14:28.902Z,96
2017-03-24T05:15:31.108Z,96
2017-03-24T05:16:33.950Z,96
2017-03-24T05:18:39.448Z,96
2017-03-24T05:19:41.288Z,96
2017-03-24T05:20:44.129Z,96
2017-03-24T05:21:46.476Z,96
2017-03-24T05:22:49.184Z,96
2017-03-24T05:23:51.776Z,96
2017-03-24T05:24:54.126Z,96
2017-03-24T05:25:56.969Z,96
2017-03-24T05:26:59.379Z,96
2017-03-24T05:28:01.721Z,96
2017-03-24T05:29:04.822Z,96
2017-03-24T05:30:07.164Z,96
2017-03-24T05:31:09.874Z,96
2017-03-24T05:32:12.213Z,96
2017-03-24T05:33:14.566Z,96
2017-03-24T05:34:17.673Z,96
2017-03-24T05:35:19.877Z,96
2017-03-24T05:36:22.081Z,96
2017-03-24T05:37:24.925Z,96
2017-03-24T05:40:32.697Z,96
2017-03-24T05:41:35.047Z,96
2017-03-24T05:42:37.949Z,96
2017-03-24T05:43:40.298Z,96
2017-03-24T05:44:42.646Z,96
2017-03-24T05:45:45.740Z,96
2017-03-24T05:46:48.082Z,96
2017-03-24T05:47:50.421Z,96
2017-03-24T05:48:53.267Z,96
2017-03-24T05:49:55.656Z,96
2017-03-24T05:50:58.249Z,96
2017-03-24T05:52:00.636Z,96
2017-03-24T05:53:02.976Z,96
2017-03-24T05:54:05.822Z,96
2017-03-24T05:55:08.531Z,96
2017-03-24T05:56:11.130Z,96
2017-03-24T05:57:13.338Z,96
2017-03-24T05:58:16.183Z,96
2017-03-24T05:59:18.525Z,96
2017-03-24T06:00:20.928Z,96
2017-03-24T06:03:28.835Z,95.9
2017-03-24T06:04:31.186Z,95.9
2017-03-24T06:05:34.093Z,95.9
2017-03-24T06:06:36.299Z,95.9
2017-03-24T06:07:39.142Z,95.9
2017-03-24T06:08:41.739Z,95.8
2017-03-24T06:09:44.086Z,95.8
2017-03-24T06:10:46.426Z,95.8
2017-03-24T06:11:49.269Z,95.7
2017-03-24T06:12:52.046Z,95.7
2017-03-24T06:13:54.643Z,95.7
2017-03-24T06:14:56.994Z,95.7
2017-03-24T06:15:59.337Z,95.6
2017-03-24T06:17:02.091Z,95.6
2017-03-24T06:18:04.444Z,95.6
2017-03-24T06:19:07.599Z,95.6
2017-03-24T06:20:09.947Z,95.5
2017-03-24T06:21:12.297Z,95.4
2017-03-24T06:22:15.151Z,95.4
2017-03-24T06:23:17.496Z,95.3
2017-03-24T06:24:20.093Z,95.3
2017-03-24T06:25:22.297Z,95.3
2017-03-24T06:26:25.150Z,95.2
2017-03-24T06:27:27.990Z,95.2
2017-03-24T06:28:30.335Z,95.1
2017-03-24T06:29:33.292Z,95.1
2017-03-24T06:30:35.492Z,95.1
2017-03-24T06:31:38.197Z,95
2017-03-24T06:32:40.541Z,95
2017-03-24T06:33:43.383Z,94.9
2017-03-24T06:34:45.981Z,94.8
2017-03-24T06:35:48.687Z,94.7
2017-03-24T06:36:51.024Z,94.6
2017-03-24T06:37:54.426Z,94.6
2017-03-24T06:38:56.137Z,94.5
2017-03-24T06:39:59.243Z,94.4
2017-03-24T06:41:01.590Z,94.3
2017-03-24T06:42:03.933Z,94.2
2017-03-24T06:43:06.773Z,94.2
2017-03-24T06:44:09.115Z,94.1
2017-03-24T06:45:12.253Z,94
2017-03-24T06:46:14.460Z,93.9
2017-03-24T06:47:16.798Z,93.9
2017-03-24T06:48:19.571Z,93.8
2017-03-24T06:49:22.420Z,93.7
2017-03-24T06:50:24.879Z,93.6
2017-03-24T06:51:27.221Z,93.6
2017-03-24T06:52:29.940Z,93.5
2017-03-24T06:53:32.781Z,93.4
2017-03-24T06:54:35.129Z,93.3
2017-03-24T06:55:37.956Z,93.2
2017-03-24T06:56:40.167Z,93.1
2017-03-24T06:57:43.013Z,93
2017-03-24T06:58:45.223Z,92.8
2017-03-24T06:59:48.440Z,92.7
2017-03-24T07:00:51.087Z,92.5
2017-03-24T07:01:53.430Z,92.3
2017-03-24T07:02:56.319Z,92.1
2017-03-24T07:03:58.660Z,92
2017-03-24T07:05:01.507Z,91.8
2017-03-24T07:06:04.105Z,91.7
2017-03-24T07:07:06.447Z,91.5
2017-03-24T07:08:09.298Z,91.3
2017-03-24T07:09:11.642Z,91.2
2017-03-24T07:10:14.491Z,91.1
2017-03-24T07:11:17.088Z,91
2017-03-24T07:12:19.430Z,90.9
2017-03-24T07:13:22.134Z,90.8
2017-03-24T07:14:25.039Z,90.8
2017-03-24T07:15:27.449Z,90.7
2017-03-24T07:16:30.545Z,90.7
2017-03-24T07:17:32.747Z,90.7
2017-03-24T07:18:35.330Z,90.6
2017-03-24T07:19:38.179Z,90.5
2017-03-24T07:21:43.682Z,90.5
2017-03-24T07:22:46.069Z,90.5
2017-03-24T07:23:48.412Z,90.4
2017-03-24T07:24:51.267Z,90.4
2017-03-24T07:25:53.540Z,90.3
2017-03-24T07:26:56.639Z,90.4
2017-03-24T07:27:58.980Z,90.4
2017-03-24T07:29:01.826Z,90.4
2017-03-24T07:30:04.168Z,90.4
2017-03-24T07:32:09.725Z,90.3
2017-03-24T07:33:12.060Z,90.2
2017-03-24T07:34:14.636Z,90.2
2017-03-24T07:35:17.474Z,90.3
2017-03-24T07:36:19.809Z,90.4
2017-03-24T07:37:22.902Z,90.4
2017-03-24T07:38:25.243Z,90.4
2017-03-24T07:39:27.999Z,90.4
2017-03-24T07:40:30.711Z,90.3
2017-03-24T07:41:33.056Z,90.3
2017-03-24T07:42:36.155Z,90.3
2017-03-24T07:43:38.495Z,90.3
2017-03-24T07:44:40.841Z,90.3
2017-03-24T07:45:43.553Z,90.2
2017-03-24T07:46:46.400Z,90.2
2017-03-24T07:47:49.086Z,90.2
2017-03-24T07:48:51.434Z,90.2
2017-03-24T07:49:54.306Z,90.1
2017-03-24T07:50:56.660Z,90.1
2017-03-24T07:51:59.500Z,90.1
2017-03-24T07:53:02.646Z,90.2
2017-03-24T07:54:04.993Z,90.2
2017-03-24T07:55:07.345Z,90.2
2017-03-24T07:56:10.195Z,90.1
2017-03-24T07:57:12.535Z,90.2
2017-03-24T07:58:15.627Z,90.2
2017-03-24T07:59:17.833Z,90.2
2017-03-24T08:00:20.546Z,90.2
2017-03-24T08:01:23.251Z,90.2
2017-03-24T08:02:26.135Z,90.2
2017-03-24T08:03:28.598Z,90.1
2017-03-24T08:04:30.800Z,90
2017-03-24T08:05:34.006Z,90
2017-03-24T08:06:36.212Z,89.9
2017-03-24T08:07:38.922Z,89.8
2017-03-24T08:08:41.880Z,89.7
2017-03-24T08:09:44.588Z,89.6
2017-03-24T08:10:46.924Z,89.4
2017-03-24T08:11:49.764Z,89.3
2017-03-24T08:12:52.470Z,89.2
2017-03-24T08:13:55.342Z,89.3
2017-03-24T08:14:57.543Z,89.3
2017-03-24T08:16:00.251Z,89.3
2017-03-24T08:17:03.098Z,89.2
2017-03-24T08:18:05.432Z,89.2
2017-03-24T08:19:08.521Z,89.3
2017-03-24T08:20:10.928Z,89.3
2017-03-24T08:21:13.267Z,89.3
2017-03-24T08:22:15.974Z,89.3
2017-03-24T08:23:18.720Z,89.4
2017-03-24T08:24:21.679Z,89.4
2017-03-24T08:25:24.018Z,89.5
2017-03-24T08:26:26.901Z,89.6
2017-03-24T08:27:29.240Z,89.6
2017-03-24T08:28:32.080Z,89.6
2017-03-24T08:29:34.722Z,89.8
2017-03-24T08:30:37.561Z,89.9
2017-03-24T08:31:39.897Z,89.9
2017-03-24T08:32:42.740Z,89.9
2017-03-24T08:33:45.077Z,90
2017-03-24T08:34:48.046Z,90.1
2017-03-24T08:35:50.381Z,90.2
2017-03-24T08:36:53.091Z,90.4
2017-03-24T08:37:55.930Z,90.5
2017-03-24T08:38:58.270Z,90.5
2017-03-24T08:40:01.368Z,90.5
2017-03-24T08:41:03.707Z,90.4
2017-03-24T08:42:06.419Z,90.3
2017-03-24T08:43:09.124Z,90.4
2017-03-24T08:44:11.698Z,90.4
2017-03-24T08:45:14.845Z,90.4
2017-03-24T08:46:17.188Z,90.4
2017-03-24T08:47:19.525Z,90.3
2017-03-24T08:48:22.923Z,90.3
2017-03-24T08:49:25.136Z,90.3
2017-03-24T08:50:27.736Z,90.4
2017-03-24T08:51:30.577Z,90.5
2017-03-24T08:52:32.921Z,90.5
2017-03-24T08:53:35.761Z,90.5
2017-03-24T08:54:38.101Z,90.6
2017-03-24T08:55:41.060Z,90.7
2017-03-24T08:56:43.829Z,90.8
2017-03-24T08:57:46.034Z,90.8
2017-03-24T08:58:48.740Z,90.8
2017-03-24T08:59:51.581Z,90.8
2017-03-24T09:00:54.546Z,90.9
2017-03-24T09:01:56.881Z,91
2017-03-24T09:02:59.588Z,91
2017-03-24T09:04:02.291Z,91.1
2017-03-24T09:05:05.122Z,91.2
2017-03-24T09:06:07.583Z,91.2
2017-03-24T09:07:09.939Z,91.2
2017-03-24T09:09:15.189Z,91.4
2017-03-24T09:10:18.031Z,91.5
2017-03-24T09:11:21.119Z,91.6
2017-03-24T09:12:23.323Z,91.6
2017-03-24T09:13:26.168Z,91.7
2017-03-24T09:14:28.610Z,91.7
2017-03-24T09:15:31.454Z,91.8
2017-03-24T09:16:34.045Z,91.8
2017-03-24T09:17:36.383Z,91.9
2017-03-24T09:18:39.093Z,91.9
2017-03-24T09:19:41.802Z,92
2017-03-24T09:20:44.504Z,92.1
2017-03-24T09:21:47.462Z,92.2
2017-03-24T09:22:49.794Z,92.2
2017-03-24T09:23:52.366Z,92.3
2017-03-24T09:24:54.935Z,92.3
2017-03-24T09:25:57.774Z,92.4
2017-03-24T09:27:00.426Z,92.4
2017-03-24T09:28:03.284Z,92.5
2017-03-24T09:29:05.643Z,92.5
2017-03-24T09:30:08.486Z,92.6
2017-03-24T09:31:10.820Z,92.6
2017-03-24T09:32:13.912Z,92.7
2017-03-24T09:33:16.116Z,92.8
2017-03-24T09:34:18.956Z,92.8
2017-03-24T09:36:23.938Z,92.9
2017-03-24T09:37:27.030Z,92.9
2017-03-24T09:38:29.372Z,93
2017-03-24T09:39:32.080Z,93
2017-03-24T09:40:34.932Z,93
2017-03-24T09:41:37.269Z,93.1
2017-03-24T09:42:40.283Z,93.1
2017-03-24T09:43:42.487Z,93.1
2017-03-24T09:44:45.328Z,93.1
2017-03-24T09:45:47.529Z,93.1
2017-03-24T09:46:50.744Z,93.1
2017-03-24T09:47:53.332Z,93.2
2017-03-24T09:48:56.037Z,93.2
2017-03-24T09:49:58.375Z,93.2
2017-03-24T09:51:01.217Z,93.2
2017-03-24T09:52:03.554Z,93.3
2017-03-24T09:53:06.513Z,93.3
2017-03-24T09:54:09.222Z,93.3
2017-03-24T09:55:11.427Z,93.3
2017-03-24T09:56:14.001Z,93.3
2017-03-24T09:58:19.918Z,93.3
2017-03-24T09:59:22.121Z,93.3
2017-03-24T10:00:24.829Z,93.3
2017-03-24T10:01:27.539Z,93.4
2017-03-24T10:02:30.247Z,93.3
2017-03-24T10:03:32.787Z,93.4
2017-03-24T10:04:35.136Z,93.4
2017-03-24T10:05:37.844Z,93.4
2017-03-24T10:06:40.685Z,93.4
2017-03-24T10:07:43.023Z,93.4
2017-03-24T10:08:46.114Z,93.4
2017-03-24T10:09:48.449Z,93.4
2017-03-24T10:10:51.286Z,93.4
2017-03-24T10:11:53.999Z,93.4
2017-03-24T10:12:56.355Z,93.4
2017-03-24T10:13:59.364Z,93.4
2017-03-24T10:15:01.699Z,93.4
2017-03-24T10:16:04.609Z,93.4
2017-03-24T10:17:06.720Z,93.4
2017-03-24T10:18:09.561Z,93.4
2017-03-24T10:19:12.654Z,93.4
2017-03-24T10:20:14.992Z,93.4
2017-03-24T10:21:17.700Z,93.4
2017-03-24T10:22:20.043Z,93.4
2017-03-24T10:23:22.751Z,93.5
2017-03-24T10:24:25.905Z,93.5
2017-03-24T10:25:28.110Z,93.5
2017-03-24T10:26:30.455Z,93.4
2017-03-24T10:27:33.323Z,93.5
2017-03-24T10:28:35.661Z,93.5
2017-03-24T10:29:38.620Z,93.5
2017-03-24T10:30:41.013Z,93.5
2017-03-24T10:31:43.788Z,93.5
2017-03-24T10:32:46.630Z,93.6
2017-03-24T10:33:48.972Z,93.5
2017-03-24T10:34:51.931Z,93.5
2017-03-24T10:35:54.270Z,93.5
2017-03-24T10:36:57.113Z,93.4
2017-03-24T10:37:59.453Z,93.4
2017-03-24T10:39:02.298Z,93.4
2017-03-24T10:40:05.127Z,93.3
2017-03-24T10:41:07.332Z,93.3
2017-03-24T10:42:10.174Z,93.3
2017-03-24T10:43:13.019Z,93.3
2017-03-24T10:44:15.402Z,93.2
2017-03-24T10:45:18.496Z,93.2
2017-03-24T10:46:20.833Z,93.2
2017-03-24T10:47:23.228Z,93.1
2017-03-24T10:48:26.068Z,93.1
2017-03-24T10:49:28.774Z,93.1
2017-03-24T10:50:31.772Z,93.1
2017-03-24T10:51:34.110Z,93.2
2017-03-24T10:52:36.449Z,93.2
2017-03-24T10:53:39.154Z,93.2
2017-03-24T10:54:41.994Z,93.2
2017-03-24T10:55:44.955Z,93.2
2017-03-24T10:56:47.299Z,93.2
2017-03-24T10:57:49.641Z,93.2
2017-03-24T10:58:52.482Z,93.1
2017-03-24T10:59:54.815Z,93.1
2017-03-24T11:00:57.822Z,93.1
2017-03-24T11:02:00.162Z,93.1
2017-03-24T11:03:03.066Z,93.1
2017-03-24T11:04:05.401Z,93.1
2017-03-24T11:05:08.249Z,93.1
2017-03-24T11:06:11.231Z,93.1
2017-03-24T11:07:13.436Z,93.1
2017-03-24T11:08:16.142Z,93.2
2017-03-24T11:09:18.715Z,93.2
2017-03-24T11:10:21.560Z,93.2
2017-03-24T11:11:24.156Z,93.3
2017-03-24T11:12:26.500Z,93.3
2017-03-24T11:13:29.341Z,93.3
2017-03-24T11:15:34.588Z,93.3
2017-03-24T11:16:37.547Z,93.3
2017-03-24T11:17:39.885Z,93.3
2017-03-24T11:18:42.726Z,93.4
2017-03-24T11:20:47.981Z,93.4
2017-03-24T11:21:50.576Z,93.4
2017-03-24T11:22:52.911Z,93.4
2017-03-24T11:23:55.753Z,93.4
2017-03-24T11:24:58.463Z,93.4
2017-03-24T11:26:01.205Z,93.4
2017-03-24T11:27:03.664Z,93.4
2017-03-24T11:28:06.368Z,93.4
2017-03-24T11:29:09.214Z,93.4
2017-03-24T11:30:11.551Z,93.3
2017-03-24T11:31:14.398Z,93.3
2017-03-24T11:32:17.038Z,93.3
2017-03-24T11:33:19.381Z,93.3
2017-03-24T11:34:22.085Z,93.4
2017-03-24T11:35:24.790Z,93.4
2017-03-24T11:36:27.634Z,93.4
2017-03-24T11:37:30.595Z,93.4
2017-03-24T11:38:32.944Z,93.4
2017-03-24T11:39:35.561Z,93.4
2017-03-24T11:40:37.765Z,93.4
2017-03-24T11:41:40.470Z,93.4
2017-03-24T11:42:43.464Z,93.4
2017-03-24T11:43:46.172Z,93.4
2017-03-24T11:44:48.380Z,93.4
2017-03-24T11:45:51.222Z,93.4
2017-03-24T11:46:54.064Z,93.4
2017-03-24T11:47:56.654Z,93.4
2017-03-24T11:48:58.990Z,93.4
2017-03-24T11:50:01.695Z,93.4
2017-03-24T11:51:04.536Z,93.4
2017-03-24T11:52:07.378Z,93.4
2017-03-24T11:53:09.966Z,93.4
2017-03-24T11:54:12.166Z,93.4
2017-03-24T11:55:15.006Z,93.4
2017-03-24T11:56:17.579Z,93.4
2017-03-24T11:57:20.428Z,93.4
2017-03-24T11:58:23.518Z,93.4
2017-03-24T11:59:25.857Z,93.3
2017-03-24T12:00:28.195Z,93.3
2017-03-24T12:01:31.042Z,93.3
2017-03-24T12:02:33.394Z,93.4
2017-03-24T12:03:36.538Z,93.3
2017-03-24T12:04:38.736Z,93.3
2017-03-24T12:05:41.443Z,93.3
2017-03-24T12:07:46.690Z,93.4
2017-03-24T12:08:49.778Z,93.4
2017-03-24T12:09:52.155Z,93.3
2017-03-24T12:10:54.999Z,93.3
2017-03-24T12:11:57.268Z,93.3
2017-03-24T12:13:00.115Z,93.3
2017-03-24T12:14:03.210Z,93.2
2017-03-24T12:15:05.561Z,93.2
2017-03-24T12:16:07.902Z,93.2
2017-03-24T12:17:10.610Z,93.2
2017-03-24T12:18:13.315Z,93.2
2017-03-24T12:19:16.138Z,93.2
2017-03-24T12:20:18.345Z,93.2
2017-03-24T12:21:21.051Z,93.3
2017-03-24T12:22:23.950Z,93.3
2017-03-24T12:23:26.657Z,93.3
2017-03-24T12:24:29.306Z,93.3
2017-03-24T12:25:31.652Z,93.3
2017-03-24T12:26:34.363Z,93.3
2017-03-24T12:27:37.209Z,93.3
2017-03-24T12:29:42.708Z,93.3
2017-03-24T12:30:45.043Z,93.2
2017-03-24T12:31:48.304Z,93.2
2017-03-24T12:32:50.512Z,93.2
2017-03-24T12:33:53.357Z,93.2
2017-03-24T12:34:55.944Z,93.2
2017-03-24T12:35:58.282Z,93.2
2017-03-24T12:37:01.127Z,93.2
2017-03-24T12:38:03.983Z,93.2
2017-03-24T12:39:06.210Z,93.3
2017-03-24T12:40:09.163Z,93.3
2017-03-24T12:41:11.876Z,93.3
2017-03-24T12:42:14.211Z,93.3
2017-03-24T12:43:17.050Z,93.3
2017-03-24T12:44:19.888Z,93.3
2017-03-24T12:46:25.295Z,93.4
2017-03-24T12:47:27.497Z,93.4
2017-03-24T12:48:30.204Z,93.4
2017-03-24T12:49:33.054Z,93.4
2017-03-24T12:50:35.393Z,93.4
2017-03-24T12:51:38.354Z,93.4
2017-03-24T12:52:40.703Z,93.4
2017-03-24T12:53:43.545Z,93.4
2017-03-24T12:54:46.117Z,93.5
2017-03-24T12:55:48.979Z,93.5
2017-03-24T12:56:51.948Z,93.5
2017-03-24T12:57:54.709Z,93.5
2017-03-24T12:58:57.046Z,93.5
2017-03-24T12:59:59.380Z,93.5
2017-03-24T13:01:02.219Z,93.5
2017-03-24T13:02:05.181Z,93.6
2017-03-24T13:03:07.521Z,93.6
2017-03-24T13:04:09.726Z,93.6
2017-03-24T13:05:12.428Z,93.5
2017-03-24T13:06:15.266Z,93.5
2017-03-24T13:07:18.418Z,93.5
2017-03-24T13:08:20.757Z,93.5
2017-03-24T13:09:23.601Z,93.6
2017-03-24T13:10:25.938Z,93.5
2017-03-24T13:11:28.808Z,93.5
2017-03-24T13:12:31.292Z,93.5
2017-03-24T13:13:33.878Z,93.5
2017-03-24T13:14:36.454Z,93.5
2017-03-24T13:15:39.295Z,93.5
2017-03-24T13:16:42.005Z,93.5
2017-03-24T13:17:44.640Z,93.5
2017-03-24T13:18:47.486Z,93.5
2017-03-24T13:19:49.688Z,93.5
2017-03-24T13:20:52.531Z,93.5
2017-03-24T13:21:55.376Z,93.5
2017-03-24T13:22:58.388Z,93.5
2017-03-24T13:24:00.596Z,93.5
2017-03-24T13:25:03.440Z,93.5
2017-03-24T13:26:06.015Z,93.5
2017-03-24T13:27:08.359Z,93.5
2017-03-24T13:28:11.505Z,93.5
2017-03-24T13:29:13.762Z,93.5
2017-03-24T13:30:16.608Z,93.5
2017-03-24T13:31:18.951Z,93.5
2017-03-24T13:32:21.798Z,93.6
2017-03-24T13:34:27.305Z,93.6
2017-03-24T13:35:29.517Z,93.6
2017-03-24T13:36:32.358Z,93.6
2017-03-24T13:37:35.200Z,93.6
2017-03-24T13:38:37.543Z,93.6
2017-03-24T13:39:40.639Z,93.6
2017-03-24T13:40:42.977Z,93.7
2017-03-24T13:42:48.229Z,93.7
2017-03-24T13:43:51.072Z,93.7
2017-03-24T13:44:54.087Z,93.7
2017-03-24T13:45:56.161Z,93.6
2017-03-24T13:46:59.043Z,93.7
2017-03-24T13:48:01.888Z,93.7
2017-03-24T13:49:04.161Z,93.7
2017-03-24T13:50:07.119Z,93.7
2017-03-24T13:51:09.459Z,93.7
2017-03-24T13:52:12.170Z,93.7
2017-03-24T13:53:14.877Z,93.7
2017-03-24T13:54:17.584Z,93.8
2017-03-24T13:55:21.109Z,93.8
2017-03-24T13:56:22.943Z,93.8
2017-03-24T13:57:25.450Z,93.8
2017-03-24T13:58:28.291Z,93.8
2017-03-24T13:59:30.632Z,93.8
2017-03-24T14:01:36.631Z,93.8
2017-03-24T14:02:38.971Z,93.8
2017-03-24T14:03:41.310Z,93.8
2017-03-24T14:04:44.153Z,93.8
2017-03-24T14:05:46.924Z,93.8
2017-03-24T14:06:49.747Z,93.8
2017-03-24T14:07:52.323Z,93.8
2017-03-24T14:08:54.663Z,93.8
2017-03-24T14:10:59.911Z,93.8
2017-03-24T14:12:02.872Z,93.8
2017-03-24T14:13:05.080Z,93.8
2017-03-24T14:14:07.921Z,93.8
2017-03-24T14:15:10.497Z,93.8
2017-03-24T14:16:13.338Z,93.8
2017-03-24T14:17:16.300Z,93.8
2017-03-24T14:18:18.644Z,93.8
2017-03-24T14:19:22.048Z,93.8
2017-03-24T14:20:24.116Z,93.8
2017-03-24T14:21:26.455Z,93.8
2017-03-24T14:22:29.467Z,93.8
2017-03-24T14:23:31.804Z,93.8
2017-03-24T14:24:34.581Z,93.8